Time;durP1;ratioP1;P1;durP2;ratioP2;P2;SDS_P1;SDS_P2;PMS_P1;PMS_P2;Temp;Humidity;BMP_temperature;BMP_pressure;BME280_temperature;BME280_humidity;BME280_pressure;Samples;Min_cycle;Max_cycle;Signal;HPM_P1;HPM_P2
2023/03/12 00:01:23;;;;;;;6.47;3.67;;;6.70;60.30;;;;;;5010804;28;20046;-48
2023/03/12 00:03:52;;;;;;;4.75;3.08;;;6.80;60.40;;;;;;5027016;28;20042;-52
2023/03/12 00:06:21;;;;;;;4.07;3.20;;;6.70;60.30;;;;;;5030562;28;20417;-47
2023/03/12 00:09:00;;;;;;;7.53;3.75;;;6.70;60.40;;;;;;5025418;28;20093;-48
2023/03/12 00:11:27;;;;;;;5.20;3.50;;;6.70;60.40;;;;;;5014280;28;20046;-49
2023/03/12 00:13:58;;;;;;;3.95;2.95;;;6.70;61.10;;;;;;5022672;28;20072;-47
2023/03/12 00:16:32;;;;;;;4.57;3.25;;;6.70;60.50;;;;;;5012564;28;20387;-47
2023/03/12 00:18:58;;;;;;;5.53;2.95;;;6.70;60.50;;;;;;5013028;28;20076;-47
2023/03/12 00:21:25;;;;;;;4.50;2.70;;;6.70;60.50;;;;;;5011535;28;20043;-49
2023/03/12 00:23:52;;;;;;;4.43;2.75;;;6.70;60.50;;;;;;5012927;28;20046;-52
2023/03/12 00:26:20;;;;;;;3.15;2.70;;;6.70;60.40;;;;;;5006697;28;20465;-48
2023/03/12 00:28:48;;;;;;;5.00;2.92;;;6.70;60.40;;;;;;5029713;28;20041;-45
2023/03/12 00:31:23;;;;;;;5.70;2.57;;;6.70;60.40;;;;;;5007918;28;20042;-50
2023/03/12 00:33:50;;;;;;;4.43;2.60;;;6.70;60.40;;;;;;5012753;28;20159;-50
2023/03/12 00:36:23;;;;;;;4.50;2.83;;;6.80;60.50;;;;;;5022794;28;20041;-48
2023/03/12 00:38:52;;;;;;;3.38;2.78;;;6.80;60.40;;;;;;5014052;28;20649;-49
2023/03/12 00:41:21;;;;;;;3.80;2.55;;;6.80;60.40;;;;;;5000580;28;20104;-45
2023/03/12 00:43:49;;;;;;;4.07;2.80;;;6.80;60.40;;;;;;5012776;28;20144;-49
2023/03/12 00:46:23;;;;;;;4.15;3.03;;;6.80;60.40;;;;;;5012493;28;20042;-48
2023/03/12 00:48:55;;;;;;;3.60;2.83;;;6.80;60.40;;;;;;5008315;28;20042;-50
2023/03/12 00:51:24;;;;;;;4.40;2.65;;;6.80;60.40;;;;;;4996663;28;20479;-51
2023/03/12 00:53:50;;;;;;;3.25;2.95;;;6.80;60.50;;;;;;5005298;28;20054;-48
2023/03/12 00:56:19;;;;;;;4.63;2.85;;;6.80;60.60;;;;;;5022916;28;20584;-45
2023/03/12 00:58:49;;;;;;;3.47;2.95;;;6.80;60.60;;;;;;5025910;28;20041;-50
2023/03/12 01:01:16;;;;;;;4.07;2.45;;;6.90;60.70;;;;;;4993190;28;20057;-49
2023/03/12 01:03:44;;;;;;;5.90;3.70;;;6.80;60.70;;;;;;5013323;28;20048;-48
2023/03/12 01:06:14;;;;;;;4.18;3.22;;;6.80;60.60;;;;;;5012012;28;20037;-48
2023/03/12 01:08:41;;;;;;;5.10;2.60;;;6.80;60.60;;;;;;4994543;28;20076;-50
2023/03/12 01:11:18;;;;;;;6.22;2.83;;;6.80;60.50;;;;;;5010226;28;20391;-49
2023/03/12 01:13:45;;;;;;;6.43;3.15;;;6.80;60.50;;;;;;4988920;28;20447;-48
2023/03/12 01:16:14;;;;;;;6.57;3.38;;;6.80;60.50;;;;;;5021189;28;20050;-51
2023/03/12 01:18:43;;;;;;;4.75;2.67;;;6.80;60.60;;;;;;5015327;28;20049;-51
2023/03/12 01:21:11;;;;;;;4.80;3.08;;;6.80;60.60;;;;;;5016860;28;20112;-51
2023/03/12 01:23:41;;;;;;;4.72;2.50;;;6.80;60.60;;;;;;5013409;28;20037;-47
2023/03/12 01:26:12;;;;;;;4.93;3.20;;;6.80;60.60;;;;;;5029140;28;20039;-51
2023/03/12 01:28:41;;;;;;;6.22;2.80;;;6.80;60.50;;;;;;4990743;28;20709;-49
2023/03/12 01:31:17;;;;;;;5.53;2.70;;;6.80;60.40;;;;;;4997055;28;20041;-48
2023/03/12 01:33:47;;;;;;;4.45;2.53;;;6.80;60.20;;;;;;5003567;28;20041;-49
2023/03/12 01:36:26;;;;;;;8.60;2.83;;;6.80;60.20;;;;;;5029060;28;20053;-47
2023/03/12 01:38:57;;;;;;;4.00;3.20;;;6.80;60.20;;;;;;5011809;28;20573;-48
2023/03/12 01:41:26;;;;;;;3.90;2.80;;;6.80;60.30;;;;;;5008051;28;20049;-47
2023/03/12 01:43:53;;;;;;;7.97;3.25;;;6.80;60.40;;;;;;5022011;28;20067;-47
2023/03/12 01:46:28;;;;;;;5.43;3.17;;;6.80;60.50;;;;;;5009264;28;20038;-51
2023/03/12 01:49:07;;;;;;;4.97;2.95;;;6.80;60.60;;;;;;4991626;28;20657;-49
2023/03/12 01:51:54;;;;;;;4.85;3.13;;;6.80;60.70;;;;;;5012800;28;20113;-50
2023/03/12 01:54:34;;;;;;;5.50;3.08;;;6.80;60.80;;;;;;5000769;28;20049;-49
2023/03/12 01:57:10;;;;;;;4.03;2.90;;;6.80;60.80;;;;;;5010798;28;20085;-49
2023/03/12 01:59:47;;;;;;;8.15;3.10;;;6.90;60.90;;;;;;4989623;28;20050;-46
2023/03/12 02:02:18;;;;;;;6.80;3.47;;;6.80;60.80;;;;;;4994718;28;20046;-48
2023/03/12 02:04:46;;;;;;;6.72;3.50;;;6.90;60.90;;;;;;5011172;28;20038;-49
2023/03/12 02:07:18;;;;;;;6.90;3.00;;;6.90;61.00;;;;;;5009540;28;20038;-52
2023/03/12 02:09:50;;;;;;;7.03;3.13;;;6.90;61.00;;;;;;5006364;28;20040;-45
2023/03/12 02:12:17;;;;;;;6.63;3.22;;;6.90;61.10;;;;;;5011442;28;20041;-48
2023/03/12 02:14:48;;;;;;;7.60;3.80;;;6.90;61.10;;;;;;5015039;28;20065;-51
2023/03/12 02:17:15;;;;;;;6.93;3.53;;;6.90;61.10;;;;;;5011947;28;20073;-46
2023/03/12 02:20:21;;;;;;;5.65;4.20;;;6.90;61.10;;;;;;5013437;28;20532;-50
2023/03/12 02:22:54;;;;;;;5.30;3.92;;;6.90;61.30;;;;;;4997275;28;20046;-49
2023/03/12 02:25:34;;;;;;;6.63;3.65;;;6.90;61.20;;;;;;5011252;28;20045;-48
2023/03/12 02:28:03;;;;;;;6.07;4.10;;;6.90;61.20;;;;;;5015683;28;20042;-51
2023/03/12 02:30:32;;;;;;;5.85;3.38;;;6.90;61.20;;;;;;5011386;28;20046;-47
2023/03/12 02:33:05;;;;;;;6.32;4.20;;;6.90;61.30;;;;;;5028130;28;20048;-50
2023/03/12 02:35:37;;;;;;;6.28;4.55;;;6.90;61.40;;;;;;5031136;28;20049;-48
2023/03/12 02:38:48;;;;;;;4.97;3.97;;;6.90;61.50;;;;;;5031263;28;20095;-51
2023/03/12 02:41:32;;;;;;;5.32;4.13;;;6.90;61.70;;;;;;5023056;28;20076;-49
2023/03/12 02:44:13;;;;;;;6.35;4.38;;;6.90;61.60;;;;;;5020592;28;20686;-47
2023/03/12 02:46:43;;;;;;;6.60;4.40;;;6.90;61.50;;;;;;4993145;28;20130;-52
2023/03/12 02:49:27;;;;;;;6.38;4.80;;;6.90;61.30;;;;;;5003147;28;20041;-47
2023/03/12 02:51:59;;;;;;;5.85;5.25;;;6.80;61.20;;;;;;4996316;28;20050;-47
2023/03/12 02:54:26;;;;;;;6.78;4.72;;;6.80;61.10;;;;;;5010852;28;20037;-46
2023/03/12 02:56:56;;;;;;;7.57;5.43;;;6.80;61.10;;;;;;5030744;28;20049;-49
2023/03/12 02:59:25;;;;;;;8.07;4.97;;;6.80;61.00;;;;;;4997510;28;20046;-46
2023/03/12 03:02:01;;;;;;;8.17;4.50;;;6.80;61.00;;;;;;5006224;28;20073;-51
2023/03/12 03:04:33;;;;;;;6.53;4.85;;;6.80;61.10;;;;;;5032558;28;20041;-50
2023/03/12 03:07:02;;;;;;;6.10;4.40;;;6.80;61.10;;;;;;5005403;28;20064;-49
2023/03/12 03:09:29;;;;;;;6.22;4.88;;;6.80;61.10;;;;;;5015131;28;20113;-49
2023/03/12 03:11:57;;;;;;;5.07;3.95;;;6.80;61.20;;;;;;5009227;28;20260;-47
2023/03/12 03:14:33;;;;;;;6.93;5.20;;;6.80;61.20;;;;;;5024339;28;20037;-48
2023/03/12 03:17:01;;;;;;;7.82;4.75;;;6.80;61.20;;;;;;4995832;28;20418;-48
2023/03/12 03:19:27;;;;;;;5.88;4.47;;;6.80;61.20;;;;;;5021089;28;20050;-51
2023/03/12 03:21:59;;;;;;;7.82;5.00;;;6.90;61.20;;;;;;5011776;28;20433;-51
2023/03/12 03:24:29;;;;;;;;;;;6.90;61.20;;;;;;5008687;28;20076;-48
2023/03/12 03:26:56;;;;;;;5.47;3.88;;;6.90;61.30;;;;;;5031846;28;19961;-50
2023/03/12 03:29:26;;;;;;;7.93;4.20;;;6.90;61.00;;;;;;5016229;28;20046;-48
2023/03/12 03:31:53;;;;;;;5.30;3.67;;;6.90;61.10;;;;;;5011902;28;20037;-47
2023/03/12 03:34:19;;;;;;;8.10;4.72;;;6.90;61.20;;;;;;5003691;28;20506;-49
2023/03/12 03:36:51;;;;;;;6.30;4.22;;;6.90;61.10;;;;;;4996021;28;20616;-47
2023/03/12 03:39:21;;;;;;;6.05;3.90;;;6.90;61.10;;;;;;5005738;28;20456;-51
2023/03/12 03:41:50;;;;;;;8.25;4.68;;;6.90;61.20;;;;;;5020160;28;20038;-50
2023/03/12 03:44:21;;;;;;;11.20;4.17;;;6.90;61.30;;;;;;5009957;28;20053;-48
2023/03/12 03:46:49;;;;;;;6.57;4.20;;;6.90;61.40;;;;;;4998833;28;20107;-48
2023/03/12 03:49:17;;;;;;;6.00;3.78;;;6.90;61.50;;;;;;5002963;28;20046;-51
2023/03/12 03:51:44;;;;;;;10.30;4.50;;;6.90;61.50;;;;;;4987696;28;20042;-50
2023/03/12 03:54:23;;;;;;;6.25;3.80;;;7.00;61.60;;;;;;5002317;28;20049;-51
2023/03/12 03:56:54;;;;;;;5.55;4.35;;;7.00;61.70;;;;;;5013569;28;20046;-48
2023/03/12 03:59:20;;;;;;;9.00;4.30;;;7.00;61.70;;;;;;5012138;28;20046;-47
2023/03/12 04:01:55;;;;;;;;;;;7.00;61.70;;;;;;5010707;28;20124;-48
2023/03/12 04:04:28;;;;;;;7.13;3.65;;;7.00;61.90;;;;;;5017199;28;19961;-46
2023/03/12 04:06:57;;;;;;;7.05;4.43;;;7.00;61.40;;;;;;5003596;28;20034;-48
2023/03/12 04:09:29;;;;;;;8.82;4.40;;;7.00;61.50;;;;;;5016106;28;20044;-50
2023/03/12 04:12:03;;;;;;;8.02;4.43;;;7.00;61.50;;;;;;5015975;28;20080;-47
2023/03/12 04:14:34;;;;;;;8.40;4.60;;;7.00;61.70;;;;;;5003944;28;20633;-49
2023/03/12 04:17:00;;;;;;;9.35;4.68;;;7.00;62.00;;;;;;5004984;28;20049;-47
2023/03/12 04:19:28;;;;;;;5.85;4.10;;;7.00;62.10;;;;;;5011791;28;20049;-50
2023/03/12 04:22:02;;;;;;;6.13;4.28;;;6.90;62.20;;;;;;5005232;28;20124;-48
2023/03/12 04:24:31;;;;;;;9.68;4.90;;;7.10;62.50;;;;;;5012037;28;20099;-48
2023/03/12 04:26:58;;;;;;;9.07;3.80;;;7.00;62.50;;;;;;5007363;28;20034;-51
2023/03/12 04:29:32;;;;;;;5.05;3.55;;;7.10;62.70;;;;;;4997614;28;20419;-48
2023/03/12 04:32:00;;;;;;;6.00;4.65;;;7.10;62.60;;;;;;5002117;28;20046;-48
2023/03/12 04:34:31;;;;;;;11.07;4.47;;;7.00;62.60;;;;;;5005774;28;20069;-49
2023/03/12 04:37:01;;;;;;;6.28;4.00;;;7.10;62.90;;;;;;5005113;28;20587;-47
2023/03/12 04:39:31;;;;;;;6.68;4.40;;;7.10;62.90;;;;;;5017574;28;20502;-48
2023/03/12 04:41:59;;;;;;;8.77;4.40;;;7.10;62.90;;;;;;4992923;28;20054;-48
2023/03/12 04:44:33;;;;;;;7.50;4.25;;;7.10;63.00;;;;;;5001432;28;20046;-48
2023/03/12 04:47:00;;;;;;;7.90;3.88;;;7.10;63.10;;;;;;5009475;28;20085;-49
2023/03/12 04:49:27;;;;;;;8.43;4.10;;;7.10;63.10;;;;;;5007716;28;20042;-49
2023/03/12 04:51:56;;;;;;;5.15;3.80;;;7.10;63.30;;;;;;5000556;28;20538;-48
2023/03/12 04:54:23;;;;;;;7.47;3.88;;;7.10;63.20;;;;;;5004788;28;20464;-46
2023/03/12 04:56:52;;;;;;;4.25;3.67;;;7.10;63.30;;;;;;5028532;28;20155;-52
2023/03/12 04:59:23;;;;;;;7.25;3.97;;;7.10;63.50;;;;;;5000203;28;20050;-47
2023/03/12 05:01:53;;;;;;;6.88;4.15;;;7.10;63.50;;;;;;5010864;28;20053;-49
2023/03/12 05:04:24;;;;;;;6.05;3.42;;;7.10;63.30;;;;;;5021190;28;20497;-49
2023/03/12 05:07:02;;;;;;;6.90;3.15;;;7.10;63.10;;;;;;5025828;28;20041;-49
2023/03/12 05:09:38;;;;;;;7.00;3.90;;;7.10;63.10;;;;;;4990310;28;20070;-46
2023/03/12 05:12:07;;;;;;;6.50;3.28;;;7.10;63.00;;;;;;5015591;28;20565;-50
2023/03/12 05:14:38;;;;;;;4.55;3.22;;;7.10;63.10;;;;;;5020805;28;20075;-49
2023/03/12 05:17:06;;;;;;;5.07;3.70;;;7.10;63.10;;;;;;5002887;28;20054;-49
2023/03/12 05:19:33;;;;;;;7.43;3.70;;;7.10;63.00;;;;;;5016258;28;20049;-47
2023/03/12 05:22:03;;;;;;;9.02;3.58;;;7.10;63.10;;;;;;4997105;28;20045;-51
2023/03/12 05:24:35;;;;;;;5.00;2.97;;;7.10;63.10;;;;;;5010847;28;20556;-48
2023/03/12 05:27:02;;;;;;;6.78;3.38;;;7.20;63.10;;;;;;5029872;28;20099;-50
2023/03/12 05:29:34;;;;;;;5.35;3.15;;;7.10;63.10;;;;;;4997633;28;20053;-51
2023/03/12 05:32:06;;;;;;;7.32;3.35;;;7.20;63.20;;;;;;5001422;28;20093;-48
2023/03/12 05:34:33;;;;;;;7.70;3.35;;;7.20;63.10;;;;;;5003902;28;20103;-45
2023/03/12 05:37:12;;;;;;;7.10;3.10;;;7.20;63.10;;;;;;4981197;28;20038;-47
2023/03/12 05:39:45;;;;;;;7.35;3.17;;;7.20;63.10;;;;;;5015315;28;20322;-51
2023/03/12 05:42:16;;;;;;;5.93;3.20;;;7.20;63.00;;;;;;5028097;28;20112;-48
2023/03/12 05:44:46;;;;;;;8.45;3.38;;;7.20;63.00;;;;;;4999908;28;20144;-48
2023/03/12 05:47:17;;;;;;;4.55;3.17;;;7.20;63.10;;;;;;5010099;28;20457;-50
2023/03/12 05:49:44;;;;;;;6.75;3.28;;;7.10;63.20;;;;;;5000705;28;20136;-47
2023/03/12 05:52:13;;;;;;;4.10;2.67;;;7.10;63.10;;;;;;5008334;28;20136;-48
2023/03/12 05:54:44;;;;;;;5.38;2.60;;;7.10;63.20;;;;;;5011716;28;20407;-47
2023/03/12 05:57:12;;;;;;;6.38;2.90;;;7.20;63.40;;;;;;5003779;28;20049;-49
2023/03/12 05:59:39;;;;;;;4.65;2.85;;;7.10;63.30;;;;;;4986435;28;20719;-49
2023/03/12 06:02:07;;;;;;;5.93;3.45;;;7.10;63.40;;;;;;5015778;28;20054;-51
2023/03/12 06:04:37;;;;;;;6.07;3.33;;;7.10;63.60;;;;;;5028440;28;20056;-49
2023/03/12 06:07:08;;;;;;;3.50;3.10;;;7.10;63.60;;;;;;5029669;28;20038;-52
2023/03/12 06:09:37;;;;;;;7.57;2.95;;;7.10;63.80;;;;;;4986835;28;20043;-48
2023/03/12 06:12:04;;;;;;;5.72;3.10;;;7.10;63.90;;;;;;4993224;28;20796;-48
2023/03/12 06:14:31;;;;;;;3.13;2.78;;;7.10;64.00;;;;;;4992832;28;20133;-49
2023/03/12 06:16:59;;;;;;;7.03;3.03;;;7.10;64.10;;;;;;5006316;28;20092;-48
2023/03/12 06:19:26;;;;;;;4.15;3.30;;;7.20;64.40;;;;;;5009332;28;20430;-47
2023/03/12 06:21:52;;;;;;;8.88;3.78;;;7.20;64.30;;;;;;4994417;28;20450;-45
2023/03/12 06:24:19;;;;;;;6.07;3.58;;;7.20;64.40;;;;;;4992888;28;20042;-52
2023/03/12 06:26:53;;;;;;;4.40;3.10;;;7.20;64.40;;;;;;4994171;28;20077;-49
2023/03/12 06:29:27;;;;;;;6.50;3.25;;;7.20;64.40;;;;;;5014254;28;20125;-47
2023/03/12 06:31:54;;;;;;;4.50;3.17;;;7.20;64.60;;;;;;5024131;28;20041;-51
2023/03/12 06:34:21;;;;;;;7.18;3.17;;;7.20;64.80;;;;;;5029300;28;20087;-49
2023/03/12 06:36:50;;;;;;;5.28;3.33;;;7.20;64.80;;;;;;5021309;28;20052;-47
2023/03/12 06:39:17;;;;;;;4.50;3.00;;;7.20;65.00;;;;;;5013083;28;20498;-45
2023/03/12 06:41:43;;;;;;;3.45;2.83;;;7.20;65.00;;;;;;5025379;28;20060;-48
2023/03/12 06:44:10;;;;;;;5.95;3.00;;;7.20;64.90;;;;;;5009558;28;20509;-49
2023/03/12 06:46:37;;;;;;;3.17;2.88;;;7.20;64.90;;;;;;5009575;28;20052;-48
2023/03/12 06:49:06;;;;;;;6.65;2.65;;;7.30;65.00;;;;;;5012856;28;20102;-48
2023/03/12 06:51:33;;;;;;;5.28;3.10;;;7.30;64.90;;;;;;5015776;28;20042;-48
2023/03/12 06:54:02;;;;;;;4.53;2.97;;;7.30;65.00;;;;;;5019469;28;20044;-48
2023/03/12 06:56:32;;;;;;;7.90;3.20;;;7.30;65.10;;;;;;5032890;28;20506;-50
2023/03/12 06:59:01;;;;;;;5.20;3.13;;;7.40;65.20;;;;;;5032176;28;20099;-52
2023/03/12 07:01:30;;;;;;;3.90;2.97;;;7.40;65.20;;;;;;5013528;28;20052;-48
2023/03/12 07:03:57;;;;;;;4.35;2.72;;;7.40;65.20;;;;;;5024642;28;20046;-50
2023/03/12 07:06:27;;;;;;;3.63;2.75;;;7.40;65.30;;;;;;5026097;28;20038;-51
2023/03/12 07:08:54;;;;;;;4.88;2.80;;;7.50;65.40;;;;;;5016212;28;20048;-48
2023/03/12 07:11:25;;;;;;;5.03;2.97;;;7.50;65.50;;;;;;5009555;28;20045;-47
2023/03/12 07:13:52;;;;;;;6.32;2.42;;;7.50;65.50;;;;;;5022938;28;20494;-50
2023/03/12 07:16:22;;;;;;;5.57;2.30;;;7.60;65.40;;;;;;5031283;28;20128;-50
2023/03/12 07:18:48;;;;;;;3.47;2.40;;;7.60;65.50;;;;;;5031062;28;20045;-48
2023/03/12 07:21:25;;;;;;;4.88;2.83;;;7.60;65.40;;;;;;5009869;28;20410;-52
2023/03/12 07:24:05;;;;;;;3.15;2.53;;;7.70;65.50;;;;;;5026958;28;20056;-52
2023/03/12 07:26:34;;;;;;;7.43;3.13;;;7.70;65.60;;;;;;5029126;28;20049;-49
2023/03/12 07:29:03;;;;;;;4.15;2.40;;;7.70;65.60;;;;;;5028189;28;20632;-47
2023/03/12 07:31:37;;;;;;;5.50;2.70;;;7.80;65.80;;;;;;5012753;28;20072;-49
2023/03/12 07:34:07;;;;;;;4.50;2.58;;;7.80;65.80;;;;;;5021723;28;20042;-47
2023/03/12 07:36:39;;;;;;;3.13;2.33;;;7.80;65.80;;;;;;5031265;28;20056;-48
2023/03/12 07:39:08;;;;;;;5.80;2.60;;;7.90;65.90;;;;;;5011905;28;20469;-48
2023/03/12 07:41:37;;;;;;;5.95;2.97;;;7.90;65.90;;;;;;5018249;28;20037;-46
2023/03/12 07:44:05;;;;;;;4.10;2.67;;;7.90;66.00;;;;;;4992313;28;20041;-50
2023/03/12 07:46:31;;;;;;;6.22;2.92;;;8.00;66.20;;;;;;5008721;28;20052;-52
2023/03/12 07:48:58;;;;;;;4.32;3.20;;;8.00;66.20;;;;;;5007949;28;20096;-48
2023/03/12 07:51:25;;;;;;;5.82;3.10;;;8.00;66.20;;;;;;5006674;28;20057;-51
2023/03/12 07:53:52;;;;;;;4.13;2.33;;;8.00;66.30;;;;;;5012598;28;20038;-47
2023/03/12 07:56:19;;;;;;;4.78;3.08;;;8.10;66.40;;;;;;5016817;28;20402;-50
2023/03/12 07:58:46;;;;;;;5.82;4.28;;;8.10;66.70;;;;;;5011107;28;20037;-48
2023/03/12 08:01:12;;;;;;;6.63;3.53;;;8.10;66.80;;;;;;5010481;28;20543;-48
2023/03/12 08:03:39;;;;;;;5.60;3.33;;;8.10;66.90;;;;;;5020149;28;20516;-49
2023/03/12 08:06:06;;;;;;;6.93;3.80;;;8.20;67.00;;;;;;5023978;28;20044;-51
2023/03/12 08:08:37;;;;;;;7.32;4.05;;;8.20;67.30;;;;;;5014300;28;20042;-46
2023/03/12 08:11:04;;;;;;;6.18;4.43;;;8.20;67.30;;;;;;5009339;28;20111;-49
2023/03/12 08:13:30;;;;;;;5.93;4.47;;;8.30;67.60;;;;;;5018535;28;20076;-52
2023/03/12 08:15:57;;;;;;;4.65;4.07;;;8.30;67.80;;;;;;5031276;28;20037;-51
2023/03/12 08:18:25;;;;;;;20.85;18.70;;;8.40;68.00;;;;;;5031180;28;20099;-47
2023/03/12 08:20:53;;;;;;;10.20;9.13;;;8.40;68.10;;;;;;5007236;28;20058;-47
2023/03/12 08:23:20;;;;;;;10.38;9.27;;;8.50;68.20;;;;;;5017884;28;20056;-52
2023/03/12 08:25:48;;;;;;;10.63;9.63;;;8.50;68.20;;;;;;5031051;28;20041;-52
2023/03/12 08:28:15;;;;;;;10.50;9.50;;;8.50;68.30;;;;;;5020990;28;20109;-48
2023/03/12 08:30:53;;;;;;;9.32;8.23;;;8.50;68.60;;;;;;5008493;28;20038;-47
2023/03/12 08:33:21;;;;;;;9.65;8.82;;;8.60;69.10;;;;;;5024654;28;20034;-51
2023/03/12 08:35:48;;;;;;;7.80;5.68;;;8.60;68.80;;;;;;5030446;28;20044;-48
2023/03/12 08:38:15;;;;;;;27.45;24.73;;;8.70;68.90;;;;;;5011730;28;20037;-46
2023/03/12 08:40:42;;;;;;;12.82;11.63;;;8.70;69.70;;;;;;5005766;28;20399;-51
2023/03/12 08:43:08;;;;;;;12.02;11.02;;;8.80;69.10;;;;;;5009929;28;20046;-51
2023/03/12 08:45:35;;;;;;;19.05;17.23;;;8.80;69.20;;;;;;5006425;28;20046;-50
2023/03/12 08:48:03;;;;;;;11.43;10.05;;;8.80;69.30;;;;;;5021059;28;20048;-51
2023/03/12 08:50:31;;;;;;;7.30;6.07;;;8.80;69.40;;;;;;5022012;28;20506;-49
2023/03/12 08:52:58;;;;;;;7.97;6.93;;;8.90;69.70;;;;;;5010423;28;20410;-50
2023/03/12 08:55:29;;;;;;;5.78;5.28;;;8.90;69.90;;;;;;5015307;28;20034;-48
2023/03/12 08:57:56;;;;;;;4.50;4.10;;;8.90;70.00;;;;;;5012001;28;20092;-47
2023/03/12 09:00:23;;;;;;;4.25;3.88;;;9.00;70.30;;;;;;5015007;28;20049;-48
2023/03/12 09:02:56;;;;;;;4.75;4.13;;;9.00;70.50;;;;;;5028162;28;20092;-48
2023/03/12 09:05:25;;;;;;;5.47;4.97;;;9.00;70.60;;;;;;5014694;28;20065;-47
2023/03/12 09:07:51;;;;;;;5.72;4.63;;;9.10;70.80;;;;;;5010156;28;20112;-48
2023/03/12 09:10:18;;;;;;;4.78;3.47;;;9.10;71.00;;;;;;5014096;28;20116;-49
2023/03/12 09:12:44;;;;;;;4.53;4.03;;;9.20;71.20;;;;;;4988766;28;20045;-49
2023/03/12 09:15:11;;;;;;;5.95;4.25;;;9.20;71.30;;;;;;5004111;28;20049;-48
2023/03/12 09:17:41;;;;;;;4.60;4.20;;;9.20;71.40;;;;;;5002343;28;20046;-48
2023/03/12 09:20:12;;;;;;;5.68;4.57;;;9.30;71.80;;;;;;5010427;28;20060;-51
2023/03/12 09:22:40;;;;;;;4.53;4.13;;;9.30;71.90;;;;;;5005229;28;20047;-47
2023/03/12 09:25:09;;;;;;;5.43;4.93;;;9.40;71.90;;;;;;5029306;28;20052;-49
2023/03/12 09:27:44;;;;;;;4.68;4.22;;;9.40;72.10;;;;;;5018069;28;20034;-49
2023/03/12 09:30:17;;;;;;;4.15;3.47;;;9.40;72.00;;;;;;5013689;28;20033;-50
2023/03/12 09:32:44;;;;;;;6.38;4.70;;;9.50;72.20;;;;;;5029229;28;20113;-49
2023/03/12 09:35:13;;;;;;;5.47;4.97;;;9.50;72.40;;;;;;5029823;28;20490;-47
2023/03/12 09:37:40;;;;;;;5.45;4.95;;;9.50;72.50;;;;;;5029715;28;20490;-46
2023/03/12 09:40:10;;;;;;;5.32;4.55;;;9.50;72.80;;;;;;5006003;28;20054;-47
2023/03/12 09:42:46;;;;;;;5.95;5.35;;;9.60;72.90;;;;;;5016441;28;20038;-49
2023/03/12 09:45:18;;;;;;;4.53;4.13;;;9.60;73.60;;;;;;5030016;28;20124;-45
2023/03/12 09:47:53;;;;;;;5.20;4.28;;;9.60;73.20;;;;;;5012633;28;20045;-49
2023/03/12 09:50:39;;;;;;;4.25;3.85;;;9.70;74.10;;;;;;5012048;28;20572;-49
2023/03/12 09:53:32;;;;;;;4.32;3.92;;;9.70;74.20;;;;;;5015867;28;20535;-51
2023/03/12 09:56:01;;;;;;;;;;;9.80;75.10;;;;;;5021459;28;20040;-46
2023/03/12 09:58:33;;;;;;;5.45;3.53;;;9.90;74.90;;;;;;5020887;28;19925;-47
2023/03/12 10:01:19;;;;;;;6.80;4.70;;;9.90;73.80;;;;;;5009541;28;20045;-50
2023/03/12 10:04:10;;;;;;;6.97;4.75;;;10.00;75.00;;;;;;5007245;28;20052;-46
2023/03/12 10:06:52;;;;;;;5.75;5.03;;;10.00;74.70;;;;;;5003914;28;20054;-48
2023/03/12 10:09:56;;;;;;;8.65;4.93;;;10.10;75.60;;;;;;5001809;28;20394;-49
2023/03/12 10:12:57;;;;;;;7.97;5.85;;;10.20;76.00;;;;;;5009772;28;20052;-49
2023/03/12 10:15:26;;;;;;;8.70;6.10;;;10.20;76.00;;;;;;5003039;28;20391;-48
2023/03/12 10:18:19;;;;;;;6.38;5.75;;;10.30;74.80;;;;;;5005352;28;20042;-48
2023/03/12 10:20:54;;;;;;;8.32;5.57;;;10.40;75.90;;;;;;5009004;28;20702;-51
2023/03/12 10:23:42;;;;;;;9.80;6.00;;;10.50;75.70;;;;;;5010025;28;20113;-46
2023/03/12 10:26:12;;;;;;;6.20;5.60;;;10.50;76.30;;;;;;5014095;28;20052;-47
2023/03/12 10:28:45;;;;;;;9.52;6.18;;;10.60;75.70;;;;;;5018725;28;20069;-52
2023/03/12 10:31:27;;;;;;;8.68;6.15;;;10.60;75.90;;;;;;5008750;28;20045;-54
2023/03/12 10:33:56;;;;;;;9.20;6.00;;;10.70;77.10;;;;;;5021430;28;20088;-55
2023/03/12 10:36:32;;;;;;;9.48;6.50;;;10.80;75.70;;;;;;5032466;28;20038;-55
2023/03/12 10:38:59;;;;;;;12.45;6.63;;;10.80;75.70;;;;;;5016523;28;20610;-54
2023/03/12 10:41:31;;;;;;;11.82;6.90;;;10.80;75.70;;;;;;5031815;28;20402;-55
2023/03/12 10:44:06;;;;;;;12.38;7.65;;;10.90;76.30;;;;;;5032038;28;20056;-51
2023/03/12 10:46:58;;;;;;;14.60;7.30;;;10.90;76.40;;;;;;5031794;28;20033;-52
2023/03/12 10:49:31;;;;;;;13.10;6.55;;;11.00;76.80;;;;;;5017327;28;20041;-53
2023/03/12 10:52:09;;;;;;;13.50;7.95;;;11.10;76.50;;;;;;5012808;28;20044;-51
2023/03/12 10:54:39;;;;;;;11.43;7.53;;;11.20;77.30;;;;;;5021860;28;20038;-55
2023/03/12 10:57:06;;;;;;;14.32;8.07;;;11.20;76.80;;;;;;5013557;28;20064;-54
2023/03/12 10:59:38;;;;;;;16.73;9.40;;;11.30;76.90;;;;;;5013133;28;20034;-54
2023/03/12 11:02:40;;;;;;;17.35;8.32;;;11.40;77.00;;;;;;5013699;28;20041;-54
2023/03/12 11:05:34;;;;;;;14.95;7.85;;;11.40;77.90;;;;;;4956168;28;20046;-51
2023/03/12 11:08:03;;;;;;;15.00;8.77;;;11.50;77.50;;;;;;5011241;28;20129;-52
2023/03/12 11:10:45;;;;;;;17.55;8.60;;;11.60;76.70;;;;;;5008580;28;20048;-54
2023/03/12 11:13:35;;;;;;;20.88;8.90;;;11.70;77.60;;;;;;5008525;28;20057;-54
2023/03/12 11:16:24;;;;;;;17.35;8.07;;;11.80;77.70;;;;;;5006524;28;20049;-53
2023/03/12 11:18:53;;;;;;;18.67;8.30;;;11.90;78.20;;;;;;5011687;28;20069;-52
2023/03/12 11:21:22;;;;;;;15.80;7.68;;;11.90;76.80;;;;;;5010484;28;20064;-52
2023/03/12 11:23:58;;;;;;;16.10;8.43;;;12.00;76.50;;;;;;5013172;28;20065;-51
2023/03/12 11:26:32;;;;;;;13.82;7.65;;;12.10;77.20;;;;;;5009752;28;20049;-54
2023/03/12 11:29:05;;;;;;;18.65;8.18;;;12.20;76.70;;;;;;5008958;28;20045;-55
2023/03/12 11:31:39;;;;;;;14.80;8.13;;;12.30;76.50;;;;;;5012594;28;20048;-54
2023/03/12 11:34:18;;;;;;;20.73;8.02;;;12.30;76.70;;;;;;5012411;28;20046;-49
2023/03/12 11:36:58;;;;;;;18.27;7.50;;;12.40;76.90;;;;;;5028390;28;20087;-53
2023/03/12 11:39:55;;;;;;;14.65;6.53;;;12.50;76.90;;;;;;5003443;28;20049;-53
2023/03/12 11:42:42;;;;;;;16.58;7.45;;;12.60;76.90;;;;;;5030513;28;20069;-51
2023/03/12 11:45:26;;;;;;;18.15;6.75;;;12.70;76.60;;;;;;5026219;28;20056;-53
2023/03/12 11:48:18;;;;;;;19.13;7.10;;;12.80;76.50;;;;;;5008595;28;20049;-51
2023/03/12 11:50:52;;;;;;;14.68;7.28;;;12.90;76.40;;;;;;5010426;28;20104;-51
2023/03/12 11:53:35;;;;;;;20.77;8.23;;;13.00;75.60;;;;;;5013340;28;20048;-51
2023/03/12 11:56:23;;;;;;;22.23;8.23;;;13.00;75.80;;;;;;5012704;28;20112;-53
2023/03/12 11:58:56;;;;;;;13.93;6.65;;;13.10;75.90;;;;;;5005790;28;20064;-53
2023/03/12 12:01:48;;;;;;;18.55;6.93;;;13.20;75.20;;;;;;5006926;28;20052;-53
2023/03/12 12:05:02;;;;;;;15.65;6.53;;;13.30;75.90;;;;;;5007361;28;20080;-53
2023/03/12 12:07:28;;;;;;;23.55;7.32;;;13.30;75.30;;;;;;5006971;28;20042;-51
2023/03/12 12:10:29;;;;;;;17.55;6.47;;;13.40;74.80;;;;;;5008947;28;20574;-51
2023/03/12 12:13:16;;;;;;;17.10;7.53;;;13.50;76.00;;;;;;5010689;28;20030;-51
2023/03/12 12:16:10;;;;;;;15.80;7.53;;;13.60;75.90;;;;;;5008079;28;20034;-54
2023/03/12 12:18:52;;;;;;;17.10;6.50;;;13.80;75.30;;;;;;5007747;28;20117;-51
2023/03/12 12:21:36;;;;;;;19.48;6.93;;;13.90;74.70;;;;;;5010360;28;20059;-52
2023/03/12 12:24:20;;;;;;;19.67;7.38;;;14.00;74.60;;;;;;5012846;28;20052;-51
2023/03/12 12:27:12;;;;;;;18.08;7.22;;;14.20;74.90;;;;;;5019394;28;20050;-52
2023/03/12 12:29:53;;;;;;;21.35;6.90;;;14.30;73.70;;;;;;5002532;28;20038;-54
2023/03/12 12:32:34;;;;;;;22.02;6.20;;;14.40;72.70;;;;;;5025662;28;20049;-52
2023/03/12 12:35:00;;;;;;;15.63;9.00;;;14.50;72.10;;;;;;5030719;28;20053;-54
2023/03/12 12:37:46;;;;;;;20.73;7.10;;;14.50;71.60;;;;;;5022585;28;20471;-54
2023/03/12 12:40:25;;;;;;;15.40;6.15;;;14.50;71.30;;;;;;5026953;28;20041;-51
2023/03/12 12:42:52;;;;;;;19.20;8.38;;;14.50;71.00;;;;;;5021225;28;20406;-53
2023/03/12 12:45:20;;;;;;;17.58;7.05;;;14.40;71.00;;;;;;5026619;28;20510;-52
2023/03/12 12:47:54;;;;;;;25.13;6.50;;;14.40;70.80;;;;;;5006078;28;20045;-51
2023/03/12 12:50:25;;;;;;;18.58;5.78;;;14.40;70.70;;;;;;5010110;28;20045;-53
2023/03/12 12:53:02;;;;;;;19.10;7.25;;;14.30;70.70;;;;;;5003423;28;20065;-53
2023/03/12 12:56:01;;;;;;;20.50;6.50;;;14.30;70.90;;;;;;4996594;28;20045;-55
2023/03/12 12:58:39;;;;;;;18.58;6.22;;;14.20;71.10;;;;;;5004071;28;20480;-52
2023/03/12 13:01:08;;;;;;;13.35;6.28;;;14.20;71.30;;;;;;5006745;28;20064;-53
2023/03/12 13:03:36;;;;;;;13.60;5.88;;;14.20;71.20;;;;;;5014072;28;20059;-51
2023/03/12 13:06:05;;;;;;;20.85;6.97;;;14.10;71.30;;;;;;5017936;28;20045;-51
2023/03/12 13:08:38;;;;;;;17.08;6.47;;;14.20;71.80;;;;;;5014979;28;20033;-52
2023/03/12 13:11:26;;;;;;;16.80;7.05;;;14.20;72.00;;;;;;5007289;28;20045;-51
2023/03/12 13:14:02;;;;;;;16.95;6.50;;;14.30;72.10;;;;;;4988492;28;20054;-51
2023/03/12 13:16:33;;;;;;;14.93;5.22;;;14.40;71.50;;;;;;5003636;28;20128;-52
2023/03/12 13:19:12;;;;;;;18.75;5.30;;;14.50;71.50;;;;;;5009415;28;20071;-53
2023/03/12 13:22:16;;;;;;;20.33;5.80;;;14.60;70.90;;;;;;4999160;28;20041;-52